Time;durP1;ratioP1;P1;durP2;ratioP2;P2;SDS_P1;SDS_P2;PMS_P1;PMS_P2;Temp;Humidity;BMP_temperature;BMP_pressure;BME280_temperature;BME280_humidity;BME280_pressure;Samples;Min_cycle;Max_cycle;Signal;HPM_P1;HPM_P2
2022/12/30 00:00:30;;;;;;;1.57;0.90;;;;;17.30;99950.00;;;;2065931;28;20596;-53
2022/12/30 00:01:30;;;;;;;1.98;0.75;;;;;17.30;99957.00;;;;2070878;28;20779;-53
2022/12/30 00:02:31;;;;;;;1.37;0.83;;;;;17.30;99955.00;;;;2070255;28;20262;-53
2022/12/30 00:03:31;;;;;;;1.37;0.70;;;;;17.30;99953.00;;;;2070980;28;20258;-52
2022/12/30 00:04:31;;;;;;;1.43;0.80;;;;;17.30;99946.00;;;;2067844;28;20303;-53
2022/12/30 00:05:32;;;;;;;2.10;1.03;;;;;17.30;99957.00;;;;2065830;28;20220;-52
2022/12/30 00:06:32;;;;;;;2.47;0.83;;;;;17.30;99952.00;;;;2069398;28;20237;-52
2022/12/30 00:07:35;;;;;;;2.23;1.03;;;;;17.30;99954.00;;;;2070852;28;20219;-53
2022/12/30 00:08:47;;;;;;;2.20;1.05;;;;;17.20;99954.00;;;;2070901;28;20764;-53
2022/12/30 00:09:48;;;;;;;1.58;0.75;;;;;17.30;99948.00;;;;2074393;28;20298;-53
2022/12/30 00:10:48;;;;;;;1.77;0.70;;;;;17.30;99949.00;;;;2070992;28;20270;-54
2022/12/30 00:11:48;;;;;;;3.10;1.10;;;;;17.30;99943.00;;;;2070537;28;20257;-53
2022/12/30 00:33:27;;;;;;;2.20;0.88;;;;;17.30;99955.00;;;;2062680;28;20794;-53
2022/12/30 00:34:32;;;;;;;1.50;0.70;;;;;17.30;99965.00;;;;2067432;28;20233;-53
2022/12/30 00:35:32;;;;;;;1.80;0.90;;;;;17.30;99969.00;;;;2059999;28;20225;-52
2022/12/30 00:36:33;;;;;;;2.30;1.03;;;;;17.30;99960.00;;;;2054753;28;20595;-52
2022/12/30 00:37:33;;;;;;;1.30;0.80;;;;;17.30;99965.00;;;;2045600;28;20306;-52
2022/12/30 00:38:33;;;;;;;1.93;0.80;;;;;17.30;99966.00;;;;2061188;28;20318;-53
2022/12/30 00:39:34;;;;;;;1.87;1.07;;;;;17.30;99968.00;;;;2061734;28;20267;-53
2022/12/30 00:40:34;;;;;;;1.50;0.90;;;;;17.30;99974.00;;;;2061905;28;20323;-52
2022/12/30 00:43:08;;;;;;;2.78;0.90;;;;;17.30;99960.00;;;;2065518;28;20216;-52
2022/12/30 00:44:08;;;;;;;1.30;0.70;;;;;17.30;99968.00;;;;2065123;28;20210;-53
2022/12/30 00:45:09;;;;;;;2.30;1.13;;;;;17.30;99965.00;;;;2069989;28;20253;-52
2022/12/30 00:46:10;;;;;;;1.50;0.87;;;;;17.30;99968.00;;;;2069747;28;20234;-53
2022/12/30 00:47:11;;;;;;;4.05;1.15;;;;;17.30;99965.00;;;;2069941;28;20818;-53
2022/12/30 00:56:12;;;;;;;2.40;0.82;;;;;17.30;99967.00;;;;2069708;28;20212;-52
2022/12/30 00:57:13;;;;;;;1.33;0.70;;;;;17.30;99971.00;;;;2069642;28;20225;-52
2022/12/30 00:58:13;;;;;;;2.08;1.17;;;;;17.30;99970.00;;;;2070113;28;20231;-52
2022/12/30 00:59:14;;;;;;;1.47;0.87;;;;;17.30;99969.00;;;;2065093;28;20226;-53
2022/12/30 01:00:14;;;;;;;1.67;0.90;;;;;17.30;99976.00;;;;2061316;28;20444;-52
2022/12/30 01:01:15;;;;;;;1.50;0.70;;;;;17.30;99982.00;;;;2054497;28;20231;-53
2022/12/30 01:02:15;;;;;;;1.70;0.70;;;;;17.30;99972.00;;;;2068677;28;20311;-53
2022/12/30 01:03:15;;;;;;;2.50;0.93;;;;;17.30;99971.00;;;;2061886;28;20227;-52
2022/12/30 01:04:16;;;;;;;1.80;0.70;;;;;17.30;99974.00;;;;2062549;28;20272;-56
2022/12/30 01:05:16;;;;;;;2.30;1.10;;;;;17.30;99985.00;;;;2062361;28;20212;-52
2022/12/30 01:06:16;;;;;;;1.70;0.87;;;;;17.30;99985.00;;;;2061826;28;20233;-52
2022/12/30 01:07:17;;;;;;;1.27;0.80;;;;;17.30;100001.00;;;;2061590;28;21209;-52
2022/12/30 01:08:17;;;;;;;2.30;1.03;;;;;17.30;99984.00;;;;2062406;28;20561;-53
2022/12/30 01:09:17;;;;;;;2.10;0.90;;;;;17.30;99982.00;;;;2062215;28;20623;-53
2022/12/30 01:10:18;;;;;;;2.90;1.10;;;;;17.30;99988.00;;;;2062393;28;20224;-53
2022/12/30 01:11:18;;;;;;;2.03;1.00;;;;;17.30;99982.00;;;;2062389;28;20765;-53
2022/12/30 01:12:18;;;;;;;1.50;0.80;;;;;17.30;99982.00;;;;2061981;28;20787;-53
2022/12/30 01:13:19;;;;;;;2.77;1.13;;;;;17.30;99991.00;;;;2062137;28;20223;-53
2022/12/30 01:14:19;;;;;;;2.60;1.23;;;;;17.10;99988.00;;;;2062508;28;20291;-53
2022/12/30 01:15:19;;;;;;;1.33;0.70;;;;;17.30;99982.00;;;;2062299;28;20232;-52
2022/12/30 01:16:20;;;;;;;1.50;0.90;;;;;17.30;99981.00;;;;2062328;28;20225;-53
2022/12/30 01:17:22;;;;;;;1.90;0.90;;;;;17.30;99991.00;;;;2062307;28;20231;-53
2022/12/30 01:18:23;;;;;;;1.63;0.70;;;;;17.30;99990.00;;;;2061872;28;20215;-53
2022/12/30 01:19:23;;;;;;;2.80;0.90;;;;;17.30;99990.00;;;;2060459;28;20240;-52
2022/12/30 01:20:23;;;;;;;1.57;0.90;;;;;17.30;99997.00;;;;2063046;28;20218;-52
2022/12/30 01:21:24;;;;;;;1.63;0.83;;;;;17.30;99990.00;;;;2070061;28;20242;-52
2022/12/30 01:22:24;;;;;;;1.40;0.73;;;;;17.30;99996.00;;;;2069359;28;20225;-53
2022/12/30 01:23:24;;;;;;;1.80;0.87;;;;;17.30;99990.00;;;;2069798;28;20256;-53
2022/12/30 01:24:25;;;;;;;2.03;0.90;;;;;17.30;99989.00;;;;2061777;28;20278;-53
2022/12/30 01:25:25;;;;;;;1.90;0.90;;;;;17.30;99995.00;;;;2061901;28;20240;-53
2022/12/30 01:26:25;;;;;;;1.47;0.87;;;;;17.30;99995.00;;;;2061435;28;20705;-53
2022/12/30 01:27:26;;;;;;;1.53;0.90;;;;;17.30;99990.00;;;;2061304;28;20692;-53
2022/12/30 01:28:34;;;;;;;2.43;0.90;;;;;17.30;99991.00;;;;2061650;28;20227;-53
2022/12/30 01:29:36;;;;;;;1.70;0.93;;;;;17.30;99998.00;;;;2059942;28;20328;-52
2022/12/30 01:30:36;;;;;;;1.95;0.90;;;;;17.30;99992.00;;;;2061888;28;20268;-53
2022/12/30 01:31:37;;;;;;;1.40;0.67;;;;;17.30;99995.00;;;;2069946;28;20270;-52
2022/12/30 01:32:37;;;;;;;1.53;1.00;;;;;17.30;99996.00;;;;2069791;28;20213;-52
2022/12/30 01:33:37;;;;;;;1.37;0.73;;;;;17.20;100000.00;;;;2070137;28;20211;-53
2022/12/30 01:34:38;;;;;;;2.60;0.93;;;;;17.30;99999.00;;;;2070145;28;20233;-52
2022/12/30 01:35:38;;;;;;;2.13;0.90;;;;;17.30;100009.00;;;;2070192;28;20212;-53
2022/12/30 01:36:38;;;;;;;1.90;0.87;;;;;17.30;100006.00;;;;2070538;28;20309;-53
2022/12/30 01:37:39;;;;;;;2.10;1.07;;;;;17.30;100003.00;;;;2070398;28;20219;-52
2022/12/30 01:38:39;;;;;;;2.37;0.90;;;;;17.30;100012.00;;;;2070158;28;20410;-52
2022/12/30 01:39:40;;;;;;;1.57;0.90;;;;;17.30;100020.00;;;;2069729;28;20306;-52
2022/12/30 01:40:40;;;;;;;2.00;0.80;;;;;17.20;100011.00;;;;2070082;28;20305;-53
2022/12/30 01:41:41;;;;;;;1.53;0.77;;;;;17.20;100015.00;;;;2064507;28;20221;-53
2022/12/30 01:42:41;;;;;;;1.50;0.80;;;;;17.20;100015.00;;;;2061799;28;20267;-53
2022/12/30 01:43:48;;;;;;;1.87;0.90;;;;;17.20;100015.00;;;;2062001;28;20212;-53
2022/12/30 01:44:49;;;;;;;2.03;0.90;;;;;17.30;100021.00;;;;2061724;28;20220;-53
2022/12/30 01:45:50;;;;;;;1.90;0.90;;;;;17.30;100013.00;;;;2062043;28;20232;-53
2022/12/30 01:46:51;;;;;;;1.27;0.70;;;;;17.20;100012.00;;;;2062219;28;21121;-53
2022/12/30 01:47:55;;;;;;;1.80;1.10;;;;;17.20;100011.00;;;;2062287;28;20240;-53
2022/12/30 01:48:56;;;;;;;1.90;0.85;;;;;17.30;100020.00;;;;2053222;28;20229;-53
2022/12/30 01:50:22;;;;;;;2.17;1.00;;;;;17.30;100025.00;;;;2044185;28;20589;-53
2022/12/30 01:51:27;;;;;;;1.27;0.95;;;;;17.30;100028.00;;;;2059975;28;20235;-53
2022/12/30 01:52:27;;;;;;;2.13;0.98;;;;;17.30;100028.00;;;;2069684;28;20230;-53
2022/12/30 01:53:32;;;;;;;1.47;0.83;;;;;17.30;100031.00;;;;2069949;28;20229;-53
2022/12/30 01:54:33;;;;;;;1.48;0.93;;;;;17.30;100031.00;;;;2060742;28;20978;-53
2022/12/30 01:55:39;;;;;;;2.00;0.97;;;;;17.30;100026.00;;;;2053363;28;20225;-53
2022/12/30 01:56:39;;;;;;;2.42;1.20;;;;;17.30;100029.00;;;;2062175;28;20230;-53
2022/12/30 01:57:41;;;;;;;1.57;0.90;;;;;17.30;100029.00;;;;2069435;28;20720;-53
2022/12/30 01:58:50;;;;;;;2.53;1.00;;;;;17.30;100028.00;;;;2069420;28;20730;-52
2022/12/30 01:59:51;;;;;;;1.98;1.13;;;;;17.30;100026.00;;;;2062422;28;20268;-52
2022/12/30 02:00:51;;;;;;;4.20;0.93;;;;;17.20;100033.00;;;;2069121;28;20257;-52
2022/12/30 02:01:51;;;;;;;1.77;1.00;;;;;17.20;100030.00;;;;2069208;28;20317;-52
2022/12/30 02:02:53;;;;;;;1.70;0.87;;;;;17.30;100030.00;;;;2070076;28;20230;-53
2022/12/30 02:04:01;;;;;;;2.00;1.08;;;;;17.20;100033.00;;;;2069855;28;20226;-53
2022/12/30 02:05:01;;;;;;;1.35;0.80;;;;;17.30;100035.00;;;;2061396;28;20683;-53
2022/12/30 02:06:02;;;;;;;2.50;1.20;;;;;17.30;100030.00;;;;2061308;28;20223;-53
2022/12/30 02:07:13;;;;;;;1.30;0.80;;;;;17.20;100019.00;;;;2069481;28;20268;-53
2022/12/30 02:08:17;;;;;;;2.08;0.80;;;;;17.20;99992.00;;;;2069116;28;20209;-53
2022/12/30 02:09:18;;;;;;;2.53;0.90;;;;;17.30;100026.00;;;;2069311;28;20295;-52
2022/12/30 02:10:18;;;;;;;1.97;1.10;;;;;17.20;100026.00;;;;2069215;28;20235;-53
2022/12/30 02:11:19;;;;;;;1.47;0.77;;;;;17.20;100037.00;;;;2052939;28;20222;-52
2022/12/30 02:12:19;;;;;;;1.93;1.07;;;;;17.20;100038.00;;;;2060807;28;20216;-53
2022/12/30 02:13:20;;;;;;;1.77;0.80;;;;;17.20;100031.00;;;;2069936;28;20293;-53
2022/12/30 02:14:20;;;;;;;1.23;0.80;;;;;17.20;100039.00;;;;2069871;28;20286;-52
2022/12/30 02:15:21;;;;;;;1.50;0.80;;;;;17.20;100035.00;;;;2070114;28;20262;-53
2022/12/30 02:16:34;;;;;;;1.80;0.90;;;;;17.10;100022.00;;;;2061247;28;20214;-53
2022/12/30 02:17:49;;;;;;;1.58;0.82;;;;;17.20;100029.00;;;;2062967;28;20219;-53
2022/12/30 02:19:10;;;;;;;1.90;1.10;;;;;17.30;100030.00;;;;2069105;28;20286;-52
2022/12/30 02:20:29;;;;;;;1.58;0.85;;;;;17.20;100025.00;;;;2069065;28;20600;-54
2022/12/30 02:21:39;;;;;;;1.83;1.02;;;;;17.20;100020.00;;;;2069458;28;20239;-53
2022/12/30 02:23:03;;;;;;;1.52;0.80;;;;;17.20;100026.00;;;;2069244;28;20226;-53
2022/12/30 02:24:25;;;;;;;1.88;0.65;;;;;17.20;100036.00;;;;2069891;28;20301;-52
2022/12/30 02:25:45;;;;;;;1.67;0.75;;;;;17.20;100023.00;;;;2070042;28;21093;-52
2022/12/30 02:27:01;;;;;;;1.63;1.10;;;;;17.20;100027.00;;;;2069931;28;20320;-53
2022/12/30 02:28:38;;;;;;;2.47;1.05;;;;;17.20;100024.00;;;;2070098;28;20216;-52
2022/12/30 02:30:07;;;;;;;3.13;1.02;;;;;17.20;100025.00;;;;2067580;28;20335;-54
2022/12/30 02:31:44;;;;;;;1.70;0.90;;;;;17.30;100033.00;;;;2064905;28;20297;-52
2022/12/30 02:33:03;;;;;;;2.30;0.82;;;;;17.20;100028.00;;;;2068509;28;20223;-52
2022/12/30 02:34:16;;;;;;;1.88;0.90;;;;;17.20;100025.00;;;;2068924;28;20219;-53
2022/12/30 02:35:28;;;;;;;2.65;0.80;;;;;17.20;100031.00;;;;2068875;28;20230;-52
2022/12/30 02:36:53;;;;;;;1.40;0.60;;;;;17.20;100024.00;;;;2063844;28;20944;-53
2022/12/30 02:38:20;;;;;;;2.58;0.77;;;;;17.20;100028.00;;;;2069454;28;20626;-52
2022/12/30 02:39:29;;;;;;;1.30;0.73;;;;;17.20;100033.00;;;;2069829;28;20308;-52
2022/12/30 02:45:13;;;;;;;2.08;0.82;;;;;17.20;100048.00;;;;2066519;28;20212;-53
2022/12/30 02:46:13;;;;;;;2.25;0.90;;;;;17.20;100040.00;;;;2049691;28;20304;-53
2022/12/30 02:47:19;;;;;;;2.53;0.90;;;;;17.20;100042.00;;;;2053853;28;20215;-52
2022/12/30 02:48:27;;;;;;;1.85;0.80;;;;;17.20;100040.00;;;;2069208;28;20817;-53
2022/12/30 02:49:28;;;;;;;1.65;0.80;;;;;17.20;100039.00;;;;2069011;28;20594;-52
2022/12/30 02:53:08;;;;;;;1.38;0.90;;;;;17.20;100034.00;;;;2065993;28;20219;-53
2022/12/30 02:54:09;;;;;;;1.70;0.70;;;;;17.20;100030.00;;;;2060811;28;20220;-53
2022/12/30 02:55:09;;;;;;;1.50;0.80;;;;;17.20;100036.00;;;;2060910;28;20305;-52
2022/12/30 02:56:09;;;;;;;2.93;1.27;;;;;17.20;100038.00;;;;2070123;28;20268;-53
2022/12/30 02:57:39;;;;;;;1.90;0.80;;;;;17.20;100041.00;;;;2071508;28;20222;-53
2022/12/30 02:58:43;;;;;;;1.58;0.88;;;;;17.20;100034.00;;;;2065842;28;20590;-53
2022/12/30 03:04:31;;;;;;;2.60;1.00;;;;;17.20;100029.00;;;;2069710;28;20211;-52
2022/12/30 03:05:45;;;;;;;1.88;0.80;;;;;17.20;100024.00;;;;2071180;28;20896;-53
2022/12/30 03:07:07;;;;;;;2.78;1.20;;;;;17.20;100029.00;;;;2056522;28;20214;-53
2022/12/30 03:08:35;;;;;;;3.90;1.10;;;;;17.20;100025.00;;;;2065939;28;20214;-52
2022/12/30 03:11:17;;;;;;;2.05;1.02;;;;;17.20;100029.00;;;;2073238;28;20671;-52
2022/12/30 03:12:27;;;;;;;1.17;0.70;;;;;17.20;100027.00;;;;2069831;28;20237;-53
2022/12/30 03:13:34;;;;;;;1.70;0.80;;;;;17.20;100020.00;;;;2063571;28;20223;-53
2022/12/30 03:15:09;;;;;;;1.95;0.95;;;;;17.20;100037.00;;;;2061896;28;20595;-52
2022/12/30 03:16:15;;;;;;;2.53;0.93;;;;;17.20;100031.00;;;;2066318;28;20325;-53
2022/12/30 03:17:20;;;;;;;1.85;1.00;;;;;17.20;100020.00;;;;2066649;28;20215;-53
2022/12/30 03:18:20;;;;;;;1.35;0.93;;;;;17.20;100031.00;;;;2066619;28;20710;-53
2022/12/30 03:19:21;;;;;;;1.90;1.00;;;;;17.20;100024.00;;;;2070307;28;20207;-53
2022/12/30 03:20:22;;;;;;;1.08;0.70;;;;;17.20;100035.00;;;;2062102;28;20326;-53
2022/12/30 03:21:23;;;;;;;2.20;1.00;;;;;17.20;100012.00;;;;2070317;28;20207;-52
2022/12/30 03:27:43;;;;;;;1.52;0.70;;;;;17.20;100007.00;;;;2061426;28;20582;-52
2022/12/30 03:28:45;;;;;;;2.20;0.97;;;;;17.20;100015.00;;;;2064772;28;20212;-53
2022/12/30 03:29:48;;;;;;;1.60;0.95;;;;;17.20;100014.00;;;;2062505;28;20258;-52
2022/12/30 03:31:00;;;;;;;1.77;0.80;;;;;17.20;100005.00;;;;2074210;28;20218;-53
2022/12/30 03:32:00;;;;;;;2.33;0.98;;;;;17.20;100006.00;;;;2069152;28;20379;-53
2022/12/30 03:33:01;;;;;;;2.00;1.00;;;;;17.20;100004.00;;;;2070506;28;20293;-53
2022/12/30 03:34:02;;;;;;;2.00;1.20;;;;;17.20;100004.00;;;;2054250;28;20234;-52
2022/12/30 03:35:02;;;;;;;2.80;0.90;;;;;17.20;100002.00;;;;2061182;28;20460;-53
2022/12/30 03:36:13;;;;;;;2.03;1.30;;;;;17.20;100001.00;;;;2070624;28;20215;-53
2022/12/30 03:37:34;;;;;;;1.65;0.80;;;;;17.20;99994.00;;;;2054950;28;20212;-53
2022/12/30 03:38:35;;;;;;;1.48;1.00;;;;;17.20;100000.00;;;;2050424;28;20212;-53
2022/12/30 03:39:36;;;;;;;1.03;0.67;;;;;17.20;99998.00;;;;2054266;28;20579;-53
2022/12/30 03:40:38;;;;;;;2.15;0.90;;;;;17.20;99999.00;;;;2060069;28;20228;-53
2022/12/30 03:41:39;;;;;;;1.90;0.90;;;;;17.20;100002.00;;;;2062506;28;20228;-53
2022/12/30 03:42:39;;;;;;;1.37;0.70;;;;;17.20;100000.00;;;;2062054;28;20245;-53
2022/12/30 03:43:40;;;;;;;1.40;0.73;;;;;17.20;100000.00;;;;2070393;28;20283;-53
2022/12/30 03:44:41;;;;;;;3.63;1.58;;;;;17.20;99987.00;;;;2070351;28;20226;-53
2022/12/30 03:45:42;;;;;;;2.80;1.00;;;;;17.20;99992.00;;;;2061537;28;20232;-52
2022/12/30 03:46:43;;;;;;;1.93;0.90;;;;;17.20;99991.00;;;;2070326;28;20509;-52
2022/12/30 03:47:43;;;;;;;2.33;1.20;;;;;17.20;99993.00;;;;2062272;28;20806;-53
2022/12/30 03:48:44;;;;;;;2.47;0.90;;;;;17.20;99991.00;;;;2061123;28;20267;-53
2022/12/30 03:49:44;;;;;;;1.50;0.90;;;;;17.20;99995.00;;;;2071182;28;20745;-53
2022/12/30 03:50:45;;;;;;;2.50;0.80;;;;;17.20;99983.00;;;;2070232;28;20894;-53
2022/12/30 03:51:45;;;;;;;2.70;1.20;;;;;17.20;99986.00;;;;2062190;28;20229;-53
2022/12/30 03:52:45;;;;;;;1.77;0.90;;;;;17.20;99987.00;;;;2070114;28;20564;-53
2022/12/30 03:53:46;;;;;;;1.80;0.80;;;;;17.20;99986.00;;;;2068561;28;20722;-53
2022/12/30 03:54:49;;;;;;;2.93;0.90;;;;;17.20;99985.00;;;;2067839;28;20935;-53
2022/12/30 03:55:51;;;;;;;2.65;1.00;;;;;17.20;99990.00;;;;2065354;28;20235;-52
2022/12/30 03:56:51;;;;;;;1.45;0.73;;;;;17.20;99995.00;;;;2062502;28;20215;-54
2022/12/30 03:57:51;;;;;;;1.60;0.90;;;;;17.10;100001.00;;;;2069842;28;20606;-53
2022/12/30 03:58:52;;;;;;;2.83;0.93;;;;;17.20;100007.00;;;;2063044;28;20207;-53
2022/12/30 03:59:52;;;;;;;4.20;1.23;;;;;17.20;100002.00;;;;2067508;28;20227;-54
2022/12/30 04:00:52;;;;;;;1.53;0.77;;;;;17.20;100000.00;;;;2069230;28;20253;-53
2022/12/30 04:01:53;;;;;;;1.57;0.80;;;;;17.20;100000.00;;;;2070395;28;20211;-53
2022/12/30 04:02:53;;;;;;;2.60;0.93;;;;;17.10;100000.00;;;;2062987;28;20210;-52
2022/12/30 04:03:54;;;;;;;2.47;1.23;;;;;17.10;100003.00;;;;2062075;28;20218;-53
2022/12/30 04:04:54;;;;;;;1.33;0.70;;;;;17.20;100000.00;;;;2062107;28;20212;-52
2022/12/30 04:05:54;;;;;;;1.90;1.17;;;;;17.10;100000.00;;;;2062627;28;20326;-53
2022/12/30 04:06:55;;;;;;;1.63;0.80;;;;;17.10;99995.00;;;;2062595;28;20216;-53
2022/12/30 04:07:55;;;;;;;1.97;1.10;;;;;17.20;99992.00;;;;2062375;28;20302;-52
2022/12/30 04:08:56;;;;;;;2.90;0.90;;;;;17.20;99996.00;;;;2062359;28;20240;-52
2022/12/30 04:09:56;;;;;;;1.40;0.60;;;;;17.10;99992.00;;;;2062292;28;20318;-52
2022/12/30 04:10:56;;;;;;;1.47;0.80;;;;;17.20;99989.00;;;;2062430;28;20282;-53
2022/12/30 04:11:57;;;;;;;2.10;1.00;;;;;17.20;99993.00;;;;2062204;28;20215;-52
2022/12/30 04:12:57;;;;;;;1.60;0.82;;;;;17.10;99987.00;;;;2068512;28;20243;-53
2022/12/30 04:13:58;;;;;;;1.63;0.87;;;;;17.20;99990.00;;;;2070606;28;20225;-53
2022/12/30 04:14:58;;;;;;;2.20;1.00;;;;;17.20;99994.00;;;;2070739;28;20210;-52
2022/12/30 04:15:58;;;;;;;1.97;0.77;;;;;17.20;99985.00;;;;2066099;28;20251;-53
2022/12/30 04:16:59;;;;;;;1.43;0.97;;;;;17.20;99996.00;;;;2062566;28;20236;-52
2022/12/30 04:17:59;;;;;;;1.67;0.90;;;;;17.20;99988.00;;;;2062435;28;20224;-53
2022/12/30 04:18:59;;;;;;;1.73;0.77;;;;;17.20;99995.00;;;;2062397;28;20227;-53
2022/12/30 04:20:00;;;;;;;1.57;0.60;;;;;17.20;99990.00;;;;2066834;28;20265;-52
2022/12/30 04:21:00;;;;;;;1.50;0.90;;;;;17.20;100004.00;;;;2070744;28;20213;-53
2022/12/30 04:22:00;;;;;;;1.80;0.93;;;;;17.20;99993.00;;;;2070049;28;20211;-54
2022/12/30 04:23:01;;;;;;;2.27;1.00;;;;;17.20;99998.00;;;;2070324;28;20222;-52
2022/12/30 04:24:01;;;;;;;1.57;0.70;;;;;16.90;99997.00;;;;2070203;28;20270;-52
2022/12/30 04:25:01;;;;;;;2.37;0.90;;;;;17.20;100002.00;;;;2070385;28;20214;-53
2022/12/30 04:26:02;;;;;;;2.20;0.90;;;;;17.10;100003.00;;;;2070577;28;20208;-52
2022/12/30 04:27:02;;;;;;;1.80;0.80;;;;;17.10;100001.00;;;;2070909;28;20266;-53
2022/12/30 04:28:03;;;;;;;1.97;0.73;;;;;17.20;100004.00;;;;2069671;28;20323;-52
2022/12/30 04:29:03;;;;;;;1.70;0.83;;;;;17.20;99997.00;;;;2070927;28;20227;-52
2022/12/30 04:30:04;;;;;;;2.30;0.87;;;;;17.20;99997.00;;;;2070849;28;20215;-52
2022/12/30 04:31:04;;;;;;;1.00;0.70;;;;;17.10;99998.00;;;;2070363;28;20214;-53
2022/12/30 04:32:05;;;;;;;2.00;0.97;;;;;17.10;100001.00;;;;2069714;28;20246;-53
2022/12/30 04:33:05;;;;;;;3.20;1.30;;;;;17.10;99993.00;;;;2070118;28;20238;-52
2022/12/30 04:34:06;;;;;;;2.60;1.20;;;;;17.10;99995.00;;;;2070170;28;20218;-52
2022/12/30 04:35:06;;;;;;;1.63;0.80;;;;;17.10;99988.00;;;;2070586;28;20226;-53
2022/12/30 04:36:07;;;;;;;3.13;1.17;;;;;17.10;99985.00;;;;2063304;28;20228;-53
2022/12/30 04:37:07;;;;;;;1.70;0.97;;;;;17.10;100001.00;;;;2063631;28;20212;-53
2022/12/30 04:38:08;;;;;;;2.90;1.33;;;;;17.10;99990.00;;;;2070690;28;20447;-53
2022/12/30 04:39:08;;;;;;;1.63;0.90;;;;;17.10;99998.00;;;;2070431;28;20342;-53
2022/12/30 04:40:09;;;;;;;1.83;0.90;;;;;17.10;99995.00;;;;2070344;28;20240;-53
2022/12/30 04:41:10;;;;;;;2.80;1.10;;;;;17.10;99993.00;;;;2065995;28;20199;-52
2022/12/30 04:42:10;;;;;;;1.50;1.10;;;;;17.10;99991.00;;;;2062028;28;20894;-53
2022/12/30 04:43:10;;;;;;;1.43;0.87;;;;;17.10;99999.00;;;;2062054;28;20253;-53
2022/12/30 04:44:11;;;;;;;1.47;0.90;;;;;17.10;100001.00;;;;2061698;28;20369;-53
2022/12/30 04:45:11;;;;;;;3.00;1.10;;;;;17.20;100000.00;;;;2062887;28;20216;-53
2022/12/30 04:46:11;;;;;;;1.40;0.80;;;;;17.20;99992.00;;;;2062695;28;20222;-52
2022/12/30 04:47:12;;;;;;;1.60;1.10;;;;;17.20;99993.00;;;;2062613;28;20377;-53
2022/12/30 04:48:12;;;;;;;2.50;0.87;;;;;17.10;99995.00;;;;2062668;28;20212;-53
2022/12/30 04:49:12;;;;;;;2.70;1.63;;;;;17.20;100008.00;;;;2062511;28;20229;-53
2022/12/30 04:50:13;;;;;;;2.37;1.00;;;;;17.20;100000.00;;;;2063926;28;20259;-52
2022/12/30 04:51:13;;;;;;;2.00;0.80;;;;;17.10;99997.00;;;;2070794;28;20267;-52
2022/12/30 04:52:13;;;;;;;1.90;0.87;;;;;17.10;99999.00;;;;2070417;28;20257;-54
2022/12/30 04:53:14;;;;;;;2.10;0.93;;;;;17.20;99997.00;;;;2070826;28;20208;-52
2022/12/30 04:54:14;;;;;;;1.70;0.80;;;;;17.10;100007.00;;;;2070357;28;20438;-52
2022/12/30 04:55:14;;;;;;;2.10;1.17;;;;;17.10;99996.00;;;;2058596;28;20212;-52
2022/12/30 04:56:15;;;;;;;1.57;0.80;;;;;17.10;99998.00;;;;2069038;28;20352;-52
2022/12/30 04:57:15;;;;;;;2.17;0.87;;;;;17.10;100006.00;;;;2067244;28;20761;-52
2022/12/30 04:58:15;;;;;;;1.90;0.80;;;;;17.10;99999.00;;;;2062562;28;20724;-53
2022/12/30 04:59:16;;;;;;;3.00;1.00;;;;;17.20;100001.00;;;;2062679;28;20708;-53
2022/12/30 05:00:16;;;;;;;2.40;0.93;;;;;17.10;99999.00;;;;2062506;28;20698;-52
2022/12/30 05:01:16;;;;;;;2.10;0.90;;;;;17.20;100006.00;;;;2062772;28;20706;-52
2022/12/30 05:02:17;;;;;;;2.67;1.10;;;;;17.10;100004.00;;;;2062158;28;20891;-52
2022/12/30 05:03:17;;;;;;;1.30;0.87;;;;;17.20;100004.00;;;;2062642;28;20758;-53
2022/12/30 05:04:18;;;;;;;1.93;0.80;;;;;17.20;100013.00;;;;2061787;28;20456;-53
2022/12/30 05:05:18;;;;;;;1.13;0.63;;;;;17.10;100001.00;;;;2062635;28;20213;-52
2022/12/30 05:06:18;;;;;;;2.50;1.03;;;;;17.10;100007.00;;;;2062574;28;20289;-53
2022/12/30 05:07:19;;;;;;;1.40;0.77;;;;;17.10;100001.00;;;;2062668;28;20212;-53
2022/12/30 05:08:19;;;;;;;2.10;1.10;;;;;17.10;100007.00;;;;2062700;28;20215;-53
2022/12/30 05:09:19;;;;;;;1.90;0.80;;;;;17.10;99999.00;;;;2062466;28;20248;-53
2022/12/30 05:10:20;;;;;;;1.60;0.90;;;;;17.10;99999.00;;;;2062177;28;20210;-52
2022/12/30 05:11:20;;;;;;;2.23;1.10;;;;;17.10;99994.00;;;;2062699;28;20747;-52
2022/12/30 05:12:20;;;;;;;1.83;0.90;;;;;17.10;99994.00;;;;2062174;28;20243;-53
2022/12/30 05:13:21;;;;;;;2.03;0.90;;;;;17.10;99997.00;;;;2062675;28;20235;-52
2022/12/30 05:14:21;;;;;;;1.83;0.80;;;;;17.10;100003.00;;;;2062424;28;20207;-53
2022/12/30 05:15:21;;;;;;;1.40;0.70;;;;;17.10;100006.00;;;;2062470;28;20218;-53
2022/12/30 05:16:22;;;;;;;1.87;0.90;;;;;17.10;100001.00;;;;2062396;28;20212;-53
2022/12/30 05:17:22;;;;;;;2.60;1.37;;;;;17.10;100017.00;;;;2062536;28;20244;-53
2022/12/30 05:18:22;;;;;;;1.87;0.93;;;;;17.10;100006.00;;;;2062166;28;20694;-53
2022/12/30 05:19:23;;;;;;;2.57;1.00;;;;;17.10;100004.00;;;;2062207;28;21166;-53
2022/12/30 05:20:23;;;;;;;2.20;1.00;;;;;17.10;100011.00;;;;2061541;28;21155;-53
2022/12/30 05:21:23;;;;;;;1.83;0.63;;;;;17.20;100011.00;;;;2062353;28;20225;-52
2022/12/30 05:22:24;;;;;;;2.30;1.03;;;;;17.10;100007.00;;;;2061973;28;20341;-53
2022/12/30 05:26:13;;;;;;;1.90;0.90;;;;;17.10;100015.00;;;;2068907;28;20227;-53
2022/12/30 05:27:14;;;;;;;1.75;0.80;;;;;17.10;100014.00;;;;2062248;28;20275;-52
2022/12/30 05:28:14;;;;;;;1.20;0.87;;;;;17.10;100017.00;;;;2062420;28;20219;-52
2022/12/30 05:29:14;;;;;;;2.03;0.93;;;;;17.10;100014.00;;;;2062184;28;20214;-53
2022/12/30 05:30:15;;;;;;;2.07;1.07;;;;;17.10;100011.00;;;;2062274;28;20199;-53
2022/12/30 05:31:16;;;;;;;1.73;0.87;;;;;17.10;100007.00;;;;2062269;28;20199;-52
2022/12/30 05:32:16;;;;;;;1.35;0.77;;;;;17.10;100014.00;;;;2060402;28;20216;-53
2022/12/30 05:33:16;;;;;;;1.40;0.80;;;;;17.10;100013.00;;;;2062316;28;20212;-53
2022/12/30 05:34:17;;;;;;;1.53;0.87;;;;;17.10;100012.00;;;;2066768;28;20311;-53
2022/12/30 05:35:17;;;;;;;1.40;0.80;;;;;17.10;100008.00;;;;2070516;28;20216;-53
2022/12/30 05:36:17;;;;;;;2.17;0.80;;;;;17.10;100012.00;;;;2070496;28;20207;-53
2022/12/30 05:37:18;;;;;;;1.43;0.90;;;;;17.10;100014.00;;;;2070134;28;20284;-53
2022/12/30 05:38:18;;;;;;;1.10;0.70;;;;;17.10;100020.00;;;;2070310;28;20708;-53
2022/12/30 05:39:18;;;;;;;2.23;1.07;;;;;17.10;100019.00;;;;2070386;28;20274;-52
2022/12/30 05:40:20;;;;;;;2.80;1.17;;;;;17.10;100007.00;;;;2070225;28;20224;-53
2022/12/30 05:41:20;;;;;;;2.30;0.90;;;;;17.10;100012.00;;;;2066992;28;20748;-52
2022/12/30 05:42:20;;;;;;;2.67;1.00;;;;;17.10;100013.00;;;;2061707;28;20217;-52
2022/12/30 05:43:21;;;;;;;1.33;0.63;;;;;17.10;100015.00;;;;2062316;28;20215;-53
2022/12/30 05:44:21;;;;;;;1.73;0.90;;;;;17.10;100021.00;;;;2062428;28;20219;-53
2022/12/30 05:45:21;;;;;;;1.10;0.60;;;;;17.10;100021.00;;;;2062205;28;20306;-53
2022/12/30 05:46:22;;;;;;;1.27;0.90;;;;;17.10;100025.00;;;;2062245;28;20685;-52
2022/12/30 05:47:22;;;;;;;1.70;1.03;;;;;17.10;100022.00;;;;2062243;28;20686;-53
2022/12/30 05:48:23;;;;;;;1.70;1.10;;;;;17.10;100023.00;;;;2061504;28;20270;-53
2022/12/30 05:49:23;;;;;;;2.67;0.80;;;;;17.10;100025.00;;;;2061513;28;20236;-53
2022/12/30 05:50:23;;;;;;;1.60;0.90;;;;;17.10;100023.00;;;;2062120;28;20485;-53
2022/12/30 05:51:24;;;;;;;1.57;0.70;;;;;17.10;100016.00;;;;2061491;28;20216;-52
2022/12/30 05:52:24;;;;;;;2.00;0.73;;;;;17.10;100021.00;;;;2060862;28;20220;-53
2022/12/30 05:53:24;;;;;;;2.50;1.10;;;;;17.10;100021.00;;;;2062070;28;20221;-53
2022/12/30 05:54:25;;;;;;;3.20;1.07;;;;;17.10;100018.00;;;;2062187;28;20254;-53
2022/12/30 05:55:25;;;;;;;1.90;1.20;;;;;17.10;100017.00;;;;2062027;28;20285;-53
2022/12/30 05:56:25;;;;;;;2.20;1.00;;;;;17.10;100006.00;;;;2061241;28;20310;-52
2022/12/30 05:57:26;;;;;;;1.40;0.63;;;;;17.10;100017.00;;;;2063834;28;20212;-53
2022/12/30 05:58:26;;;;;;;1.40;0.60;;;;;17.10;100005.00;;;;2066771;28;20215;-53
2022/12/30 05:59:26;;;;;;;2.70;0.80;;;;;17.10;100010.00;;;;2062243;28;20335;-53
2022/12/30 06:00:27;;;;;;;1.70;0.80;;;;;17.10;100003.00;;;;2066884;28;20228;-52
2022/12/30 06:01:27;;;;;;;2.13;1.00;;;;;17.10;100010.00;;;;2070397;28;20237;-52
2022/12/30 06:02:27;;;;;;;1.20;0.60;;;;;17.10;100006.00;;;;2069664;28;20224;-53
2022/12/30 06:03:30;;;;;;;2.20;1.10;;;;;17.10;100019.00;;;;2070026;28;20242;-53